Crook, United Kingdom
Current Conditions -  °F | °C
As of 9:50 PM on Saturday 24 Jan 2015 (Local Time) from EGNV Reporting Station
Clear Clear  
Wind Chill: 32°   Ceiling: Unl
Heat Index: 37°   Visibility: 6mi
Dew Point: 32°   Wind: 7mph
Humidity: 81%   Direction: 190°S
Pressure: 30.33"   Gusts: NA
Location:  54.71°N, 1.69°W
Report Text: EGNV 242150Z 19006KT CAVOK 03/M00 Q1027
Loading
Personal Weather Stations






























Interactive Weather Map New forecast layout! Learn more

10-Day Weather Forecast

Advertisements
Track Severe Weather on mobile